sensor_id;sensor_type;location;lat;lon;timestamp;temperature;humidity
4922;DHT22;16625;53.624;10.106;2023-03-14T00:00:15;10.50;1.00
4922;DHT22;16625;53.624;10.106;2023-03-14T00:02:42;10.40;1.00
4922;DHT22;16625;53.624;10.106;2023-03-14T00:05:10;10.40;98.60
4922;DHT22;16625;53.624;10.106;2023-03-14T00:07:39;10.40;99.90
4922;DHT22;16625;53.624;10.106;2023-03-14T00:10:09;10.40;99.90
4922;DHT22;16625;53.624;10.106;2023-03-14T00:12:37;10.30;99.90
4922;DHT22;16625;53.624;10.106;2023-03-14T00:15:05;10.20;99.90
4922;DHT22;16625;53.624;10.106;2023-03-14T00:17:34;10.20;1.00
4922;DHT22;16625;53.624;10.106;2023-03-14T00:20:01;10.20;95.50
4922;DHT22;16625;53.624;10.106;2023-03-14T00:22:34;10.20;99.90
4922;DHT22;16625;53.624;10.106;2023-03-14T00:25:01;10.30;99.90
4922;DHT22;16625;53.624;10.106;2023-03-14T00:27:28;10.30;99.90
4922;DHT22;16625;53.624;10.106;2023-03-14T00:29:55;10.50;99.90
4922;DHT22;16625;53.624;10.106;2023-03-14T00:32:22;10.50;3.80
4922;DHT22;16625;53.624;10.106;2023-03-14T00:34:51;10.50;1.00
4922;DHT22;16625;53.624;10.106;2023-03-14T00:37:18;10.60;1.00
4922;DHT22;16625;53.624;10.106;2023-03-14T00:39:45;10.60;99.90
4922;DHT22;16625;53.624;10.106;2023-03-14T00:42:11;10.70;2.80
4922;DHT22;16625;53.624;10.106;2023-03-14T00:44:39;10.60;99.90
4922;DHT22;16625;53.624;10.106;2023-03-14T00:47:06;10.70;99.90
4922;DHT22;16625;53.624;10.106;2023-03-14T00:49:33;10.50;99.90
4922;DHT22;16625;53.624;10.106;2023-03-14T00:52:02;10.50;99.90
4922;DHT22;16625;53.624;10.106;2023-03-14T00:54:28;10.50;99.90
4922;DHT22;16625;53.624;10.106;2023-03-14T00:56:55;10.50;99.90
4922;DHT22;16625;53.624;10.106;2023-03-14T00:59:23;10.50;99.90
4922;DHT22;16625;53.624;10.106;2023-03-14T01:01:50;10.50;24.90
4922;DHT22;16625;53.624;10.106;2023-03-14T01:04:16;10.50;21.30
4922;DHT22;16625;53.624;10.106;2023-03-14T01:06:43;10.50;36.30
4922;DHT22;16625;53.624;10.106;2023-03-14T01:09:12;10.60;1.00
4922;DHT22;16625;53.624;10.106;2023-03-14T01:11:38;10.60;1.00
4922;DHT22;16625;53.624;10.106;2023-03-14T01:14:05;10.60;99.90
4922;DHT22;16625;53.624;10.106;2023-03-14T01:16:34;10.60;99.90
4922;DHT22;16625;53.624;10.106;2023-03-14T01:19:02;10.60;99.90
4922;DHT22;16625;53.624;10.106;2023-03-14T01:21:31;10.70;99.90
4922;DHT22;16625;53.624;10.106;2023-03-14T01:23:59;10.70;77.20
4922;DHT22;16625;53.624;10.106;2023-03-14T01:26:30;10.70;16.00
4922;DHT22;16625;53.624;10.106;2023-03-14T01:28:58;10.70;1.00
4922;DHT22;16625;53.624;10.106;2023-03-14T01:31:25;10.70;1.00
4922;DHT22;16625;53.624;10.106;2023-03-14T01:33:52;10.70;1.00
4922;DHT22;16625;53.624;10.106;2023-03-14T01:36:19;10.70;1.00
4922;DHT22;16625;53.624;10.106;2023-03-14T01:38:46;10.70;1.00
4922;DHT22;16625;53.624;10.106;2023-03-14T01:41:15;10.60;1.00
4922;DHT22;16625;53.624;10.106;2023-03-14T01:43:44;10.60;1.00
4922;DHT22;16625;53.624;10.106;2023-03-14T01:49:24;10.40;99.90
4922;DHT22;16625;53.624;10.106;2023-03-14T01:51:56;10.30;99.90
4922;DHT22;16625;53.624;10.106;2023-03-14T01:54:26;10.20;99.90
4922;DHT22;16625;53.624;10.106;2023-03-14T01:56:58;10.20;1.00
4922;DHT22;16625;53.624;10.106;2023-03-14T01:59:29;10.20;1.00
4922;DHT22;16625;53.624;10.106;2023-03-14T02:01:57;10.20;1.00
4922;DHT22;16625;53.624;10.106;2023-03-14T02:04:28;10.20;99.90
4922;DHT22;16625;53.624;10.106;2023-03-14T02:07:03;10.20;99.90
4922;DHT22;16625;53.624;10.106;2023-03-14T02:09:32;10.20;99.90
4922;DHT22;16625;53.624;10.106;2023-03-14T02:11:59;10.30;1.00
4922;DHT22;16625;53.624;10.106;2023-03-14T02:14:31;10.30;99.90
4922;DHT22;16625;53.624;10.106;2023-03-14T02:16:59;10.20;1.00
4922;DHT22;16625;53.624;10.106;2023-03-14T02:19:40;10.20;1.00
4922;DHT22;16625;53.624;10.106;2023-03-14T02:22:13;10.20;1.00
4922;DHT22;16625;53.624;10.106;2023-03-14T02:24:44;10.00;1.40
4922;DHT22;16625;53.624;10.106;2023-03-14T02:27:15;9.90;99.90
4922;DHT22;16625;53.624;10.106;2023-03-14T02:29:48;9.80;99.90
4922;DHT22;16625;53.624;10.106;2023-03-14T02:32:33;9.80;1.00
4922;DHT22;16625;53.624;10.106;2023-03-14T02:35:08;9.70;99.90
4922;DHT22;16625;53.624;10.106;2023-03-14T02:37:48;9.60;99.90
4922;DHT22;16625;53.624;10.106;2023-03-14T02:40:22;9.60;1.00
4922;DHT22;16625;53.624;10.106;2023-03-14T02:42:51;9.60;8.10
4922;DHT22;16625;53.624;10.106;2023-03-14T02:45:33;9.60;99.90
4922;DHT22;16625;53.624;10.106;2023-03-14T02:48:07;9.60;96.30
4922;DHT22;16625;53.624;10.106;2023-03-14T02:50:40;9.60;28.70
4922;DHT22;16625;53.624;10.106;2023-03-14T02:53:17;9.70;29.30
4922;DHT22;16625;53.624;10.106;2023-03-14T02:55:46;9.70;1.00
4922;DHT22;16625;53.624;10.106;2023-03-14T02:58:18;9.80;1.00
4922;DHT22;16625;53.624;10.106;2023-03-14T03:00:49;9.80;1.00
4922;DHT22;16625;53.624;10.106;2023-03-14T03:03:29;9.90;99.90
4922;DHT22;16625;53.624;10.106;2023-03-14T03:05:57;10.00;1.00
4922;DHT22;16625;53.624;10.106;2023-03-14T03:08:26;10.00;1.00
4922;DHT22;16625;53.624;10.106;2023-03-14T03:10:58;10.10;99.90
4922;DHT22;16625;53.624;10.106;2023-03-14T03:13:26;10.20;20.60
4922;DHT22;16625;53.624;10.106;2023-03-14T03:15:53;10.20;1.00
4922;DHT22;16625;53.624;10.106;2023-03-14T03:18:20;10.30;1.00
4922;DHT22;16625;53.624;10.106;2023-03-14T03:20:47;10.30;99.90
4922;DHT22;16625;53.624;10.106;2023-03-14T03:23:14;10.40;99.90
4922;DHT22;16625;53.624;10.106;2023-03-14T03:25:41;10.40;86.50
4922;DHT22;16625;53.624;10.106;2023-03-14T03:28:08;10.40;1.00
4922;DHT22;16625;53.624;10.106;2023-03-14T03:30:39;10.40;1.00
4922;DHT22;16625;53.624;10.106;2023-03-14T03:33:07;10.30;1.00
4922;DHT22;16625;53.624;10.106;2023-03-14T03:35:34;10.40;1.00
4922;DHT22;16625;53.624;10.106;2023-03-14T03:38:01;10.50;1.00
4922;DHT22;16625;53.624;10.106;2023-03-14T03:40:28;10.50;99.90
4922;DHT22;16625;53.624;10.106;2023-03-14T03:42:55;10.50;99.90
4922;DHT22;16625;53.624;10.106;2023-03-14T03:45:22;10.50;99.90
4922;DHT22;16625;53.624;10.106;2023-03-14T03:47:50;10.60;99.90
4922;DHT22;16625;53.624;10.106;2023-03-14T03:50:17;10.70;1.00
4922;DHT22;16625;53.624;10.106;2023-03-14T03:52:44;10.60;1.00
4922;DHT22;16625;53.624;10.106;2023-03-14T03:55:11;10.60;1.00
4922;DHT22;16625;53.624;10.106;2023-03-14T03:57:38;10.80;99.90
4922;DHT22;16625;53.624;10.106;2023-03-14T04:00:06;10.70;99.90
4922;DHT22;16625;53.624;10.106;2023-03-14T04:02:34;10.70;99.90
4922;DHT22;16625;53.624;10.106;2023-03-14T04:05:03;10.60;99.90
4922;DHT22;16625;53.624;10.106;2023-03-14T04:07:31;10.70;99.90
4922;DHT22;16625;53.624;10.106;2023-03-14T04:09:58;10.80;53.40
4922;DHT22;16625;53.624;10.106;2023-03-14T04:12:25;10.70;1.00
4922;DHT22;16625;53.624;10.106;2023-03-14T04:14:52;10.70;12.50
4922;DHT22;16625;53.624;10.106;2023-03-14T04:17:19;10.50;17.80
4922;DHT22;16625;53.624;10.106;2023-03-14T04:19:46;10.60;1.00
4922;DHT22;16625;53.624;10.106;2023-03-14T04:22:16;10.60;1.00
4922;DHT22;16625;53.624;10.106;2023-03-14T04:24:43;10.50;1.00
4922;DHT22;16625;53.624;10.106;2023-03-14T04:27:10;10.50;1.00
4922;DHT22;16625;53.624;10.106;2023-03-14T04:29:36;10.50;1.00
4922;DHT22;16625;53.624;10.106;2023-03-14T04:32:04;10.40;24.90
4922;DHT22;16625;53.624;10.106;2023-03-14T04:34:31;10.40;99.90
4922;DHT22;16625;53.624;10.106;2023-03-14T04:36:57;10.50;1.00
4922;DHT22;16625;53.624;10.106;2023-03-14T04:39:26;10.40;1.00
4922;DHT22;16625;53.624;10.106;2023-03-14T04:41:53;10.40;11.60
4922;DHT22;16625;53.624;10.106;2023-03-14T04:44:20;10.40;1.00
4922;DHT22;16625;53.624;10.106;2023-03-14T04:46:47;10.50;46.30
4922;DHT22;16625;53.624;10.106;2023-03-14T04:49:13;10.60;1.00
4922;DHT22;16625;53.624;10.106;2023-03-14T04:51:40;10.60;1.00
4922;DHT22;16625;53.624;10.106;2023-03-14T04:54:07;10.60;99.90
4922;DHT22;16625;53.624;10.106;2023-03-14T04:56:36;10.60;99.90
4922;DHT22;16625;53.624;10.106;2023-03-14T04:59:03;10.70;99.90
4922;DHT22;16625;53.624;10.106;2023-03-14T05:01:29;10.70;99.90
4922;DHT22;16625;53.624;10.106;2023-03-14T05:03:56;10.70;99.90
4922;DHT22;16625;53.624;10.106;2023-03-14T05:06:23;10.80;36.50
4922;DHT22;16625;53.624;10.106;2023-03-14T05:08:50;10.80;1.00
4922;DHT22;16625;53.624;10.106;2023-03-14T05:11:17;10.80;1.00
4922;DHT22;16625;53.624;10.106;2023-03-14T05:13:45;10.80;1.00
4922;DHT22;16625;53.624;10.106;2023-03-14T05:16:12;10.80;1.00
4922;DHT22;16625;53.624;10.106;2023-03-14T05:18:40;10.80;1.00
4922;DHT22;16625;53.624;10.106;2023-03-14T05:21:07;10.80;99.90
4922;DHT22;16625;53.624;10.106;2023-03-14T05:23:34;10.80;99.90
4922;DHT22;16625;53.624;10.106;2023-03-14T05:26:01;10.70;99.90
4922;DHT22;16625;53.624;10.106;2023-03-14T05:28:28;10.60;1.00
4922;DHT22;16625;53.624;10.106;2023-03-14T05:30:56;10.40;1.00
4922;DHT22;16625;53.624;10.106;2023-03-14T05:33:23;10.00;85.10
4922;DHT22;16625;53.624;10.106;2023-03-14T05:35:50;9.70;99.90
4922;DHT22;16625;53.624;10.106;2023-03-14T05:38:17;9.50;99.90
4922;DHT22;16625;53.624;10.106;2023-03-14T05:40:45;9.50;1.00
4922;DHT22;16625;53.624;10.106;2023-03-14T05:43:12;9.40;1.00
4922;DHT22;16625;53.624;10.106;2023-03-14T05:45:38;9.30;99.90
4922;DHT22;16625;53.624;10.106;2023-03-14T05:48:07;9.30;1.00
4922;DHT22;16625;53.624;10.106;2023-03-14T05:50:34;9.30;1.00
4922;DHT22;16625;53.624;10.106;2023-03-14T05:53:01;9.20;74.90
4922;DHT22;16625;53.624;10.106;2023-03-14T05:55:28;9.20;99.90
4922;DHT22;16625;53.624;10.106;2023-03-14T05:57:55;9.20;99.90
4922;DHT22;16625;53.624;10.106;2023-03-14T06:00:22;9.20;99.90
4922;DHT22;16625;53.624;10.106;2023-03-14T06:02:49;9.10;99.90
4922;DHT22;16625;53.624;10.106;2023-03-14T06:05:18;9.10;99.90
4922;DHT22;16625;53.624;10.106;2023-03-14T06:07:45;9.10;99.90
4922;DHT22;16625;53.624;10.106;2023-03-14T06:10:12;9.20;99.90
4922;DHT22;16625;53.624;10.106;2023-03-14T06:12:38;9.20;99.90
4922;DHT22;16625;53.624;10.106;2023-03-14T06:15:06;9.20;99.90
4922;DHT22;16625;53.624;10.106;2023-03-14T06:17:33;9.20;99.90
4922;DHT22;16625;53.624;10.106;2023-03-14T06:20:01;9.20;99.90
4922;DHT22;16625;53.624;10.106;2023-03-14T06:22:29;9.30;99.90
4922;DHT22;16625;53.624;10.106;2023-03-14T06:24:56;9.30;99.90
4922;DHT22;16625;53.624;10.106;2023-03-14T06:27:23;9.30;99.90
4922;DHT22;16625;53.624;10.106;2023-03-14T06:29:50;9.30;99.90
4922;DHT22;16625;53.624;10.106;2023-03-14T06:32:16;9.80;99.90
4922;DHT22;16625;53.624;10.106;2023-03-14T06:34:43;9.40;99.90
4922;DHT22;16625;53.624;10.106;2023-03-14T06:37:10;9.40;99.90
4922;DHT22;16625;53.624;10.106;2023-03-14T06:39:38;9.40;99.90
4922;DHT22;16625;53.624;10.106;2023-03-14T06:42:06;9.40;99.90
4922;DHT22;16625;53.624;10.106;2023-03-14T06:44:33;9.40;99.90
4922;DHT22;16625;53.624;10.106;2023-03-14T06:47:00;9.30;99.90
4922;DHT22;16625;53.624;10.106;2023-03-14T06:49:27;9.40;99.90
4922;DHT22;16625;53.624;10.106;2023-03-14T06:51:54;9.60;99.90
4922;DHT22;16625;53.624;10.106;2023-03-14T06:54:21;9.50;99.90
4922;DHT22;16625;53.624;10.106;2023-03-14T06:56:49;9.50;99.90
4922;DHT22;16625;53.624;10.106;2023-03-14T06:59:16;9.60;99.90
4922;DHT22;16625;53.624;10.106;2023-03-14T07:01:43;9.60;99.90
4922;DHT22;16625;53.624;10.106;2023-03-14T07:04:10;9.60;99.90
4922;DHT22;16625;53.624;10.106;2023-03-14T07:06:37;9.60;99.90
4922;DHT22;16625;53.624;10.106;2023-03-14T07:09:05;9.70;99.90
4922;DHT22;16625;53.624;10.106;2023-03-14T07:11:32;9.60;99.90
4922;DHT22;16625;53.624;10.106;2023-03-14T07:14:00;9.70;99.90
4922;DHT22;16625;53.624;10.106;2023-03-14T07:16:27;9.80;99.90
4922;DHT22;16625;53.624;10.106;2023-03-14T07:18:57;9.80;99.90
4922;DHT22;16625;53.624;10.106;2023-03-14T07:21:23;9.80;99.90
4922;DHT22;16625;53.624;10.106;2023-03-14T07:23:50;9.90;99.90
4922;DHT22;16625;53.624;10.106;2023-03-14T07:26:18;9.90;99.90
4922;DHT22;16625;53.624;10.106;2023-03-14T07:28:45;10.00;96.00
4922;DHT22;16625;53.624;10.106;2023-03-14T07:31:16;10.00;68.80
4922;DHT22;16625;53.624;10.106;2023-03-14T07:33:42;10.10;29.20
4922;DHT22;16625;53.624;10.106;2023-03-14T07:36:10;10.10;6.30
4922;DHT22;16625;53.624;10.106;2023-03-14T07:38:37;10.20;1.00
4922;DHT22;16625;53.624;10.106;2023-03-14T07:41:05;10.20;1.00
4922;DHT22;16625;53.624;10.106;2023-03-14T07:43:32;10.20;1.00
4922;DHT22;16625;53.624;10.106;2023-03-14T07:45:59;10.30;1.00
4922;DHT22;16625;53.624;10.106;2023-03-14T07:48:28;10.30;1.00
4922;DHT22;16625;53.624;10.106;2023-03-14T07:50:56;10.40;1.00
4922;DHT22;16625;53.624;10.106;2023-03-14T07:53:23;10.30;1.00
4922;DHT22;16625;53.624;10.106;2023-03-14T07:55:50;10.10;1.00
4922;DHT22;16625;53.624;10.106;2023-03-14T07:58:18;10.00;1.00
4922;DHT22;16625;53.624;10.106;2023-03-14T08:00:47;9.90;87.90
4922;DHT22;16625;53.624;10.106;2023-03-14T08:03:14;10.00;96.10
4922;DHT22;16625;53.624;10.106;2023-03-14T08:05:43;10.00;99.90
4922;DHT22;16625;53.624;10.106;2023-03-14T08:08:10;10.10;99.90
4922;DHT22;16625;53.624;10.106;2023-03-14T08:10:38;10.10;1.00
4922;DHT22;16625;53.624;10.106;2023-03-14T08:13:05;10.30;1.00
4922;DHT22;16625;53.624;10.106;2023-03-14T08:15:32;10.40;1.00
4922;DHT22;16625;53.624;10.106;2023-03-14T08:17:59;10.30;99.90
4922;DHT22;16625;53.624;10.106;2023-03-14T08:20:27;10.50;23.70
4922;DHT22;16625;53.624;10.106;2023-03-14T08:22:57;10.40;1.00
4922;DHT22;16625;53.624;10.106;2023-03-14T08:25:24;10.60;99.90
4922;DHT22;16625;53.624;10.106;2023-03-14T08:27:51;10.80;99.90
4922;DHT22;16625;53.624;10.106;2023-03-14T08:30:19;10.80;99.90
4922;DHT22;16625;53.624;10.106;2023-03-14T08:32:47;10.80;99.90
4922;DHT22;16625;53.624;10.106;2023-03-14T08:35:14;10.70;1.00
4922;DHT22;16625;53.624;10.106;2023-03-14T08:37:41;10.80;99.90
4922;DHT22;16625;53.624;10.106;2023-03-14T08:40:10;10.90;99.90
4922;DHT22;16625;53.624;10.106;2023-03-14T08:42:38;10.90;99.90
4922;DHT22;16625;53.624;10.106;2023-03-14T08:45:06;10.90;99.90
4922;DHT22;16625;53.624;10.106;2023-03-14T08:47:34;10.90;1.00
4922;DHT22;16625;53.624;10.106;2023-03-14T08:50:01;11.00;1.00
4922;DHT22;16625;53.624;10.106;2023-03-14T08:52:29;10.90;99.90
4922;DHT22;16625;53.624;10.106;2023-03-14T08:54:57;10.90;1.00
4922;DHT22;16625;53.624;10.106;2023-03-14T08:57:26;10.90;1.00
4922;DHT22;16625;53.624;10.106;2023-03-14T08:59:53;10.90;1.00
4922;DHT22;16625;53.624;10.106;2023-03-14T09:02:22;10.90;1.00
4922;DHT22;16625;53.624;10.106;2023-03-14T09:04:49;10.80;99.90
4922;DHT22;16625;53.624;10.106;2023-03-14T09:07:17;10.80;99.90
4922;DHT22;16625;53.624;10.106;2023-03-14T09:09:44;10.70;99.90
4922;DHT22;16625;53.624;10.106;2023-03-14T09:12:12;10.70;1.00
4922;DHT22;16625;53.624;10.106;2023-03-14T09:14:41;10.80;99.90
4922;DHT22;16625;53.624;10.106;2023-03-14T09:17:08;10.80;1.00
4922;DHT22;16625;53.624;10.106;2023-03-14T09:19:35;10.80;99.90
4922;DHT22;16625;53.624;10.106;2023-03-14T09:22:02;10.80;1.00
4922;DHT22;16625;53.624;10.106;2023-03-14T09:24:29;10.80;1.00
4922;DHT22;16625;53.624;10.106;2023-03-14T09:26:56;10.70;1.00
4922;DHT22;16625;53.624;10.106;2023-03-14T09:29:26;10.60;1.00
4922;DHT22;16625;53.624;10.106;2023-03-14T09:31:54;10.60;33.20
4922;DHT22;16625;53.624;10.106;2023-03-14T09:34:22;10.60;1.00
4922;DHT22;16625;53.624;10.106;2023-03-14T09:36:49;10.60;99.90
4922;DHT22;16625;53.624;10.106;2023-03-14T09:39:17;10.70;99.90
4922;DHT22;16625;53.624;10.106;2023-03-14T09:41:45;10.60;1.00
4922;DHT22;16625;53.624;10.106;2023-03-14T09:44:16;10.50;99.90
4922;DHT22;16625;53.624;10.106;2023-03-14T09:46:50;10.50;1.00
4922;DHT22;16625;53.624;10.106;2023-03-14T09:49:21;10.60;1.00
4922;DHT22;16625;53.624;10.106;2023-03-14T09:51:53;10.70;75.30
4922;DHT22;16625;53.624;10.106;2023-03-14T09:54:32;10.90;99.90
4922;DHT22;16625;53.624;10.106;2023-03-14T09:57:01;11.10;28.00
4922;DHT22;16625;53.624;10.106;2023-03-14T09:59:29;11.00;99.90
4922;DHT22;16625;53.624;10.106;2023-03-14T10:01:58;10.80;99.90
4922;DHT22;16625;53.624;10.106;2023-03-14T10:04:28;9.80;99.90
4922;DHT22;16625;53.624;10.106;2023-03-14T10:06:56;8.80;99.90
4922;DHT22;16625;53.624;10.106;2023-03-14T10:09:24;8.40;99.90
4922;DHT22;16625;53.624;10.106;2023-03-14T10:11:54;7.90;99.90
4922;DHT22;16625;53.624;10.106;2023-03-14T10:14:33;7.80;99.90
4922;DHT22;16625;53.624;10.106;2023-03-14T10:17:07;7.60;99.90
4922;DHT22;16625;53.624;10.106;2023-03-14T10:19:36;7.80;99.90
4922;DHT22;16625;53.624;10.106;2023-03-14T10:22:05;7.60;99.90
4922;DHT22;16625;53.624;10.106;2023-03-14T10:24:34;7.20;99.90
4922;DHT22;16625;53.624;10.106;2023-03-14T10:27:03;6.90;99.90
4922;DHT22;16625;53.624;10.106;2023-03-14T10:29:32;6.70;99.90
4922;DHT22;16625;53.624;10.106;2023-03-14T10:32:01;6.70;99.90
4922;DHT22;16625;53.624;10.106;2023-03-14T10:34:30;6.70;99.90
4922;DHT22;16625;53.624;10.106;2023-03-14T10:37:07;6.60;99.90
4922;DHT22;16625;53.624;10.106;2023-03-14T10:39:41;6.30;99.90
4922;DHT22;16625;53.624;10.106;2023-03-14T10:42:18;6.20;99.90
4922;DHT22;16625;53.624;10.106;2023-03-14T10:44:48;5.90;99.90
4922;DHT22;16625;53.624;10.106;2023-03-14T10:47:19;5.70;99.90
4922;DHT22;16625;53.624;10.106;2023-03-14T10:49:46;5.50;99.90
4922;DHT22;16625;53.624;10.106;2023-03-14T10:52:20;5.50;99.90
4922;DHT22;16625;53.624;10.106;2023-03-14T10:54:53;5.40;99.90
4922;DHT22;16625;53.624;10.106;2023-03-14T10:57:27;5.20;99.90
4922;DHT22;16625;53.624;10.106;2023-03-14T10:59:55;5.00;99.90
4922;DHT22;16625;53.624;10.106;2023-03-14T11:02:45;4.80;99.90
4922;DHT22;16625;53.624;10.106;2023-03-14T11:05:26;4.50;99.90
4922;DHT22;16625;53.624;10.106;2023-03-14T11:08:01;4.50;99.90
4922;DHT22;16625;53.624;10.106;2023-03-14T11:10:32;4.50;99.90
4922;DHT22;16625;53.624;10.106;2023-03-14T11:13:15;4.50;99.90
4922;DHT22;16625;53.624;10.106;2023-03-14T11:15:58;4.50;99.90
4922;DHT22;16625;53.624;10.106;2023-03-14T11:18:56;4.50;99.90
4922;DHT22;16625;53.624;10.106;2023-03-14T11:21:29;4.50;99.90
4922;DHT22;16625;53.624;10.106;2023-03-14T11:24:18;4.50;99.90
4922;DHT22;16625;53.624;10.106;2023-03-14T11:26:55;4.30;99.90
4922;DHT22;16625;53.624;10.106;2023-03-14T11:29:31;4.30;99.90
4922;DHT22;16625;53.624;10.106;2023-03-14T11:32:02;4.20;99.90
4922;DHT22;16625;53.624;10.106;2023-03-14T11:34:38;4.20;99.90
4922;DHT22;16625;53.624;10.106;2023-03-14T11:37:11;4.30;99.90
4922;DHT22;16625;53.624;10.106;2023-03-14T11:39:47;4.10;99.90
4922;DHT22;16625;53.624;10.106;2023-03-14T11:42:19;4.20;99.90
4922;DHT22;16625;53.624;10.106;2023-03-14T11:44:48;4.40;99.90
4922;DHT22;16625;53.624;10.106;2023-03-14T11:47:18;4.60;99.90
4922;DHT22;16625;53.624;10.106;2023-03-14T11:49:50;4.70;99.90
4922;DHT22;16625;53.624;10.106;2023-03-14T11:52:21;4.70;1.00
4922;DHT22;16625;53.624;10.106;2023-03-14T11:54:53;4.80;99.90
4922;DHT22;16625;53.624;10.106;2023-03-14T11:57:22;5.00;14.90
4922;DHT22;16625;53.624;10.106;2023-03-14T11:59:54;5.10;1.00
4922;DHT22;16625;53.624;10.106;2023-03-14T12:02:26;5.30;1.00
4922;DHT22;16625;53.624;10.106;2023-03-14T12:05:22;5.40;1.00
4922;DHT22;16625;53.624;10.106;2023-03-14T12:11:04;5.40;1.00
4922;DHT22;16625;53.624;10.106;2023-03-14T12:13:38;5.40;99.90
4922;DHT22;16625;53.624;10.106;2023-03-14T12:16:09;5.50;99.90
4922;DHT22;16625;53.624;10.106;2023-03-14T12:18:46;5.60;99.90
4922;DHT22;16625;53.624;10.106;2023-03-14T12:21:13;5.60;99.90
4922;DHT22;16625;53.624;10.106;2023-03-14T12:23:43;5.70;99.90
4922;DHT22;16625;53.624;10.106;2023-03-14T12:26:18;5.70;99.90
4922;DHT22;16625;53.624;10.106;2023-03-14T12:28:50;5.60;99.90
4922;DHT22;16625;53.624;10.106;2023-03-14T12:31:37;5.60;99.90
4922;DHT22;16625;53.624;10.106;2023-03-14T12:34:27;5.60;99.90
4922;DHT22;16625;53.624;10.106;2023-03-14T12:37:01;5.60;99.90
4922;DHT22;16625;53.624;10.106;2023-03-14T12:39:37;5.60;99.90
4922;DHT22;16625;53.624;10.106;2023-03-14T12:42:12;5.70;99.90
4922;DHT22;16625;53.624;10.106;2023-03-14T12:44:42;5.70;99.90
4922;DHT22;16625;53.624;10.106;2023-03-14T12:47:47;5.80;64.50
4922;DHT22;16625;53.624;10.106;2023-03-14T12:50:24;5.70;99.90
4922;DHT22;16625;53.624;10.106;2023-03-14T12:53:31;5.70;54.80
4922;DHT22;16625;53.624;10.106;2023-03-14T12:56:06;5.60;12.40
4922;DHT22;16625;53.624;10.106;2023-03-14T12:58:39;5.60;99.90
4922;DHT22;16625;53.624;10.106;2023-03-14T13:01:16;5.80;99.90
4922;DHT22;16625;53.624;10.106;2023-03-14T13:03:46;5.90;1.00
4922;DHT22;16625;53.624;10.106;2023-03-14T13:06:48;5.90;1.00
4922;DHT22;16625;53.624;10.106;2023-03-14T13:09:49;5.90;1.00
4922;DHT22;16625;53.624;10.106;2023-03-14T13:12:19;5.80;1.00
4922;DHT22;16625;53.624;10.106;2023-03-14T13:14:50;6.00;29.40
4922;DHT22;16625;53.624;10.106;2023-03-14T13:17:23;6.20;37.60
4922;DHT22;16625;53.624;10.106;2023-03-14T13:19:52;6.30;1.00
4922;DHT22;16625;53.624;10.106;2023-03-14T13:22:25;6.30;1.00
4922;DHT22;16625;53.624;10.106;2023-03-14T13:24:59;6.40;1.00
4922;DHT22;16625;53.624;10.106;2023-03-14T13:27:29;6.50;99.90
4922;DHT22;16625;53.624;10.106;2023-03-14T13:29:56;6.50;99.90
4922;DHT22;16625;53.624;10.106;2023-03-14T13:32:27;6.50;99.90
4922;DHT22;16625;53.624;10.106;2023-03-14T13:34:55;6.50;55.50
4922;DHT22;16625;53.624;10.106;2023-03-14T13:37:25;6.40;1.00
4922;DHT22;16625;53.624;10.106;2023-03-14T13:39:55;6.40;1.00
4922;DHT22;16625;53.624;10.106;2023-03-14T13:42:25;6.50;1.00
4922;DHT22;16625;53.624;10.106;2023-03-14T13:44:53;6.60;1.00
4922;DHT22;16625;53.624;10.106;2023-03-14T13:47:22;6.50;1.00
4922;DHT22;16625;53.624;10.106;2023-03-14T13:49:50;6.50;1.00
4922;DHT22;16625;53.624;10.106;2023-03-14T13:52:28;6.40;1.00
4922;DHT22;16625;53.624;10.106;2023-03-14T13:54:56;6.40;1.00
4922;DHT22;16625;53.624;10.106;2023-03-14T13:57:23;6.30;1.00
4922;DHT22;16625;53.624;10.106;2023-03-14T14:00:02;6.30;1.00
4922;DHT22;16625;53.624;10.106;2023-03-14T14:02:35;6.40;1.00
4922;DHT22;16625;53.624;10.106;2023-03-14T14:05:03;6.40;1.00
4922;DHT22;16625;53.624;10.106;2023-03-14T14:07:32;6.40;1.00
4922;DHT22;16625;53.624;10.106;2023-03-14T14:09:59;6.40;1.00
4922;DHT22;16625;53.624;10.106;2023-03-14T14:12:29;6.20;1.00
4922;DHT22;16625;53.624;10.106;2023-03-14T14:15:02;6.40;1.00
4922;DHT22;16625;53.624;10.106;2023-03-14T14:17:33;6.40;1.00
4922;DHT22;16625;53.624;10.106;2023-03-14T14:20:04;6.40;1.00
4922;DHT22;16625;53.624;10.106;2023-03-14T14:22:34;6.50;1.00
4922;DHT22;16625;53.624;10.106;2023-03-14T14:25:01;6.50;1.00
4922;DHT22;16625;53.624;10.106;2023-03-14T14:27:33;6.70;1.00
4922;DHT22;16625;53.624;10.106;2023-03-14T14:30:03;6.80;1.00
4922;DHT22;16625;53.624;10.106;2023-03-14T14:32:40;6.70;1.00
4922;DHT22;16625;53.624;10.106;2023-03-14T14:35:10;6.60;1.00
4922;DHT22;16625;53.624;10.106;2023-03-14T14:37:43;6.40;1.00
4922;DHT22;16625;53.624;10.106;2023-03-14T14:40:18;6.30;1.00
4922;DHT22;16625;53.624;10.106;2023-03-14T14:42:46;6.30;1.00
4922;DHT22;16625;53.624;10.106;2023-03-14T14:45:16;6.20;1.00
4922;DHT22;16625;53.624;10.106;2023-03-14T14:47:51;6.20;1.00
4922;DHT22;16625;53.624;10.106;2023-03-14T14:50:28;6.30;1.00
4922;DHT22;16625;53.624;10.106;2023-03-14T14:52:58;6.40;1.00
4922;DHT22;16625;53.624;10.106;2023-03-14T14:55:31;6.50;1.00
4922;DHT22;16625;53.624;10.106;2023-03-14T14:58:11;6.40;1.00
4922;DHT22;16625;53.624;10.106;2023-03-14T15:00:40;6.30;1.00
4922;DHT22;16625;53.624;10.106;2023-03-14T15:03:13;6.20;99.90
4922;DHT22;16625;53.624;10.106;2023-03-14T15:05:41;6.20;99.90
4922;DHT22;16625;53.624;10.106;2023-03-14T15:08:10;6.30;99.90
4922;DHT22;16625;53.624;10.106;2023-03-14T15:10:38;6.30;99.90
4922;DHT22;16625;53.624;10.106;2023-03-14T15:16:29;6.20;99.90
4922;DHT22;16625;53.624;10.106;2023-03-14T15:18:58;6.20;99.90
4922;DHT22;16625;53.624;10.106;2023-03-14T15:21:27;6.10;99.90
4922;DHT22;16625;53.624;10.106;2023-03-14T15:23:56;6.10;99.90
4922;DHT22;16625;53.624;10.106;2023-03-14T15:26:25;6.00;99.90
4922;DHT22;16625;53.624;10.106;2023-03-14T15:28:52;6.00;99.90
4922;DHT22;16625;53.624;10.106;2023-03-14T15:31:20;6.00;99.90
4922;DHT22;16625;53.624;10.106;2023-03-14T15:33:48;6.00;99.90
4922;DHT22;16625;53.624;10.106;2023-03-14T15:36:23;6.20;99.90
4922;DHT22;16625;53.624;10.106;2023-03-14T15:38:51;6.40;99.90
4922;DHT22;16625;53.624;10.106;2023-03-14T15:41:20;6.40;99.90
4922;DHT22;16625;53.624;10.106;2023-03-14T15:43:48;6.20;99.90
4922;DHT22;16625;53.624;10.106;2023-03-14T15:46:15;6.10;99.90
4922;DHT22;16625;53.624;10.106;2023-03-14T15:48:44;6.00;99.90
4922;DHT22;16625;53.624;10.106;2023-03-14T15:51:12;5.90;99.90
4922;DHT22;16625;53.624;10.106;2023-03-14T15:53:40;5.90;99.90
4922;DHT22;16625;53.624;10.106;2023-03-14T15:56:11;5.80;99.90
4922;DHT22;16625;53.624;10.106;2023-03-14T15:58:40;5.80;99.90
4922;DHT22;16625;53.624;10.106;2023-03-14T16:01:08;5.80;99.90
4922;DHT22;16625;53.624;10.106;2023-03-14T16:03:35;5.80;99.90
4922;DHT22;16625;53.624;10.106;2023-03-14T16:06:02;5.70;99.90
4922;DHT22;16625;53.624;10.106;2023-03-14T16:08:29;5.70;99.90
4922;DHT22;16625;53.624;10.106;2023-03-14T16:10:58;5.60;99.90